100LL.CA
Aviation Fuel Pricing for Canadians
Please upgrade your browser - Tested with IE9, FireFox, Chrome, Safari

Fuel Prices Airport Info Airport List METAR / TAF Kneeboard RSS

Reference Airport: Langley Regional, BC
N 49 06 03   W 122 37 51

Enter a list of
Airport Idents:
Sort Method: As Entered    By Ident   

CYVR
METAR CYVR 250900Z 13014KT 20SM BKN023 OVC049 04/02 A2986 RMK SC6SC2 PRESFR SLP112
TAF AMD CYVR 250906Z 2509/2612 13015KT P6SM SCT030 OVC060 TEMPO 2509/2521 P6SM -SHRA BKN020 OVC040 BECMG 2509/2511 24015KT FM252100 28020KT P6SM FEW100 BECMG 2522/2524 28012KT FM260600 30010KT P6SM FEW200 BECMG 2608/2610 09010KT RMK NXT FCST BY 251200Z
CYXX
METAR CYXX 250900Z 19014KT 15SM -RA BKN050 OVC060 03/00 A2990 RMK SC7SC1 SLP128
TAF CYXX 250538Z 2506/2606 18015KT P6SM SCT030 BKN050 TEMPO 2506/2513 5SM -SHRA BR BKN015 PROB30 2506/2513 2SM -SHRASN BR FM251300 18015KT P6SM FEW020 SCT050 TEMPO 2513/2524 P6SM -SHRA SCT020 BKN050 BECMG 2514/2516 23012G22KT FM260000 23012G22KT P6SM FEW200 BECMG 2601/2603 17008KT RMK NXT FCST BY 251200Z
KBLI
METAR KBLI 250853Z AUTO 15016G23KT 10SM SCT021 BKN055 OVC070 04/02 A2991 RMK AO2 SLP137 60004 T00440017 58039
TAF KBLI 250520Z 2506/2606 17015G25KT P6SM -RA BKN030 OVC050 TEMPO 2506/2508 BKN025 FM250800 16018G24KT P6SM -RA OVC025 FM251000 18015G22KT P6SM -RA OVC020 FM252200 19011G18KT P6SM VCSH SCT020 BKN035